Time;durP1;ratioP1;P1;durP2;ratioP2;P2;SDS_P1;SDS_P2;PMS_P1;PMS_P2;Temp;Humidity;BMP_temperature;BMP_pressure;BME280_temperature;BME280_humidity;BME280_pressure;Samples;Min_cycle;Max_cycle;Signal;HPM_P1;HPM_P2
2022/03/03 00:01:43;;;;;;;13.20;8.07;;;;;;;;;;6180582;23;20385;-47
2022/03/03 00:04:09;;;;;;;14.40;10.00;;;;;;;;;;6180031;23;20379;-49
2022/03/03 00:06:35;;;;;;;13.07;9.03;;;;;;;;;;6181090;23;20396;-50
2022/03/03 00:09:01;;;;;;;14.80;8.83;;;;;;;;;;6181251;23;20435;-49
2022/03/03 00:11:27;;;;;;;13.10;9.30;;;;;;;;;;6180634;23;20369;-50
2022/03/03 00:13:53;;;;;;;14.50;9.97;;;;;;;;;;6177930;23;20751;-48
2022/03/03 00:16:19;;;;;;;16.70;10.00;;;;;;;;;;6180754;23;20384;-51
2022/03/03 00:18:45;;;;;;;13.20;11.10;;;;;;;;;;6179997;23;20379;-52
2022/03/03 00:21:11;;;;;;;14.83;10.37;;;;;;;;;;6180712;23;20384;-51
2022/03/03 00:23:37;;;;;;;14.97;9.30;;;;;;;;;;6180110;23;20592;-48
2022/03/03 00:26:03;;;;;;;15.23;10.00;;;;;;;;;;6178592;23;20376;-51
2022/03/03 00:28:29;;;;;;;18.23;9.20;;;;;;;;;;6178954;23;20436;-47
2022/03/03 00:30:55;;;;;;;14.50;9.00;;;;;;;;;;6179638;23;20372;-51
2022/03/03 00:33:21;;;;;;;19.13;11.10;;;;;;;;;;6179436;23;20396;-48
2022/03/03 00:35:47;;;;;;;14.17;9.03;;;;;;;;;;6179569;23;20142;-50
2022/03/03 00:38:13;;;;;;;12.23;8.67;;;;;;;;;;6153935;23;20383;-50
2022/03/03 00:40:39;;;;;;;16.00;11.00;;;;;;;;;;6180036;23;20713;-48
2022/03/03 00:43:06;;;;;;;15.63;9.40;;;;;;;;;;6178220;23;20380;-50
2022/03/03 00:45:33;;;;;;;13.27;8.73;;;;;;;;;;6177958;23;20380;-48
2022/03/03 00:47:59;;;;;;;16.30;9.13;;;;;;;;;;6176026;23;20411;-51
2022/03/03 00:50:25;;;;;;;13.20;9.60;;;;;;;;;;6178014;23;20404;-48
2022/03/03 00:52:50;;;;;;;16.47;10.90;;;;;;;;;;6179159;23;20384;-49
2022/03/03 00:55:16;;;;;;;17.57;9.80;;;;;;;;;;6175786;23;20372;-50
2022/03/03 00:57:42;;;;;;;13.53;9.47;;;;;;;;;;6179817;23;20461;-49
2022/03/03 01:00:09;;;;;;;17.83;9.50;;;;;;;;;;6179662;23;20388;-51
2022/03/03 01:02:35;;;;;;;11.60;9.60;;;;;;;;;;6178524;23;20372;-51
2022/03/03 01:05:01;;;;;;;17.03;9.00;;;;;;;;;;6180432;23;20467;-49
2022/03/03 01:07:27;;;;;;;13.40;8.77;;;;;;;;;;6180571;23;20404;-49
2022/03/03 01:09:53;;;;;;;12.77;9.30;;;;;;;;;;6180789;23;20428;-49
2022/03/03 01:12:19;;;;;;;14.03;8.97;;;;;;;;;;6180158;23;20369;-49
2022/03/03 01:14:45;;;;;;;12.13;9.40;;;;;;;;;;6153826;23;20396;-49
2022/03/03 01:17:11;;;;;;;18.40;11.17;;;;;;;;;;6179971;23;20889;-50
2022/03/03 01:19:37;;;;;;;15.50;10.00;;;;;;;;;;6182399;23;20172;-49
2022/03/03 01:22:03;;;;;;;15.63;10.07;;;;;;;;;;6182733;23;20478;-49
2022/03/03 01:24:29;;;;;;;17.20;9.03;;;;;;;;;;6181761;23;20376;-48
2022/03/03 01:26:54;;;;;;;13.97;8.90;;;;;;;;;;6181088;23;20395;-51
2022/03/03 01:29:20;;;;;;;13.73;9.70;;;;;;;;;;6182132;23;20515;-49
2022/03/03 01:31:46;;;;;;;19.70;10.50;;;;;;;;;;6181824;23;20368;-49
2022/03/03 01:34:12;;;;;;;15.80;9.77;;;;;;;;;;6182578;23;20364;-50
2022/03/03 01:36:38;;;;;;;15.47;9.43;;;;;;;;;;6183199;23;20365;-50
2022/03/03 01:39:05;;;;;;;13.67;9.63;;;;;;;;;;6183473;23;20376;-50
2022/03/03 01:41:31;;;;;;;13.27;9.20;;;;;;;;;;6183037;23;20224;-49
2022/03/03 01:43:56;;;;;;;15.10;9.33;;;;;;;;;;6183024;23;20387;-48
2022/03/03 01:46:22;;;;;;;13.00;10.90;;;;;;;;;;6183008;23;20376;-50
2022/03/03 01:48:48;;;;;;;14.10;9.10;;;;;;;;;;6181847;23;20432;-49
2022/03/03 01:51:15;;;;;;;12.30;10.10;;;;;;;;;;6183507;23;20373;-49
2022/03/03 01:53:41;;;;;;;15.90;9.67;;;;;;;;;;6182907;23;20377;-49
2022/03/03 01:56:07;;;;;;;12.47;11.17;;;;;;;;;;6180890;23;20415;-50
2022/03/03 01:58:33;;;;;;;22.57;10.70;;;;;;;;;;6154288;23;20380;-49
2022/03/03 02:00:59;;;;;;;16.33;9.17;;;;;;;;;;6181282;23;20406;-50
2022/03/03 02:03:25;;;;;;;26.67;14.77;;;;;;;;;;6179427;23;20416;-51
2022/03/03 02:05:51;;;;;;;15.97;9.80;;;;;;;;;;6182092;23;20385;-51
2022/03/03 02:08:17;;;;;;;17.23;11.13;;;;;;;;;;6181658;23;20419;-51
2022/03/03 02:10:43;;;;;;;15.10;9.93;;;;;;;;;;6180962;23;20882;-50
2022/03/03 02:13:09;;;;;;;17.53;10.67;;;;;;;;;;6180226;23;20368;-49
2022/03/03 02:15:35;;;;;;;13.67;10.03;;;;;;;;;;6180399;23;20954;-48
2022/03/03 02:18:01;;;;;;;18.27;10.87;;;;;;;;;;6179678;23;20863;-51
2022/03/03 02:20:28;;;;;;;16.70;10.37;;;;;;;;;;6183008;23;20813;-49
2022/03/03 02:22:54;;;;;;;20.80;11.27;;;;;;;;;;6181060;23;20712;-49
2022/03/03 02:25:20;;;;;;;16.03;11.07;;;;;;;;;;6179496;23;20440;-48
2022/03/03 02:27:46;;;;;;;16.17;10.20;;;;;;;;;;6181046;23;20360;-50
2022/03/03 02:30:13;;;;;;;15.87;10.60;;;;;;;;;;6181092;23;20435;-48
2022/03/03 02:32:39;;;;;;;24.53;12.17;;;;;;;;;;6180747;23;20518;-48
2022/03/03 02:35:05;;;;;;;13.23;9.17;;;;;;;;;;6181239;23;20649;-47
2022/03/03 02:37:34;;;;;;;15.00;9.70;;;;;;;;;;6181106;23;20372;-47
2022/03/03 02:40:00;;;;;;;17.80;9.03;;;;;;;;;;6180645;23;20372;-48
2022/03/03 02:42:26;;;;;;;15.10;10.73;;;;;;;;;;6180354;23;20369;-48
2022/03/03 02:44:52;;;;;;;16.47;9.43;;;;;;;;;;6180790;23;20386;-49
2022/03/03 02:47:18;;;;;;;17.70;10.93;;;;;;;;;;6179991;23;20886;-49
2022/03/03 02:49:44;;;;;;;14.17;9.73;;;;;;;;;;6181005;23;20427;-49
2022/03/03 02:52:10;;;;;;;18.07;11.00;;;;;;;;;;6180986;23;20426;-50
2022/03/03 02:54:36;;;;;;;17.10;10.60;;;;;;;;;;6181631;23;20405;-50
2022/03/03 02:59:47;;;;;;;20.83;11.33;;;;;;;;;;6182189;23;20423;-49
2022/03/03 03:02:13;;;;;;;15.20;10.63;;;;;;;;;;6180187;23;20373;-48
2022/03/03 03:04:39;;;;;;;15.97;10.07;;;;;;;;;;6180633;23;20419;-50
2022/03/03 03:07:05;;;;;;;19.03;10.70;;;;;;;;;;6179765;23;20461;-50
2022/03/03 03:09:31;;;;;;;14.37;10.30;;;;;;;;;;6181668;23;20432;-49
2022/03/03 03:11:57;;;;;;;25.53;10.63;;;;;;;;;;6180346;23;20507;-49
2022/03/03 03:14:22;;;;;;;17.57;10.77;;;;;;;;;;6180212;23;20739;-49
2022/03/03 03:16:48;;;;;;;16.73;11.00;;;;;;;;;;6180099;23;20451;-48
2022/03/03 03:19:14;;;;;;;16.00;11.20;;;;;;;;;;6181873;23;20372;-49
2022/03/03 03:21:40;;;;;;;20.10;10.40;;;;;;;;;;6181286;23;20352;-46
2022/03/03 03:24:06;;;;;;;21.00;11.57;;;;;;;;;;6179851;23;20562;-49
2022/03/03 03:26:32;;;;;;;18.83;11.90;;;;;;;;;;6180255;23;20840;-50
2022/03/03 03:28:58;;;;;;;13.67;9.30;;;;;;;;;;6180081;23;21054;-53
2022/03/03 03:31:24;;;;;;;15.13;10.60;;;;;;;;;;6179676;23;20368;-49
2022/03/03 03:33:50;;;;;;;19.57;12.63;;;;;;;;;;6179430;23;20439;-51
2022/03/03 03:36:16;;;;;;;14.20;10.53;;;;;;;;;;6180409;23;20376;-50
2022/03/03 03:38:42;;;;;;;16.50;11.57;;;;;;;;;;6181223;23;20148;-50
2022/03/03 03:41:08;;;;;;;20.37;12.13;;;;;;;;;;6179844;23;20368;-49
2022/03/03 03:43:34;;;;;;;13.40;11.07;;;;;;;;;;6178888;23;20401;-48
2022/03/03 03:46:00;;;;;;;15.63;10.33;;;;;;;;;;6150627;23;20879;-49
2022/03/03 03:48:26;;;;;;;16.40;11.53;;;;;;;;;;6178615;23;20435;-48
2022/03/03 03:50:52;;;;;;;18.20;11.80;;;;;;;;;;6180794;23;20396;-50
2022/03/03 03:53:18;;;;;;;19.53;12.50;;;;;;;;;;6153205;23;20369;-51
2022/03/03 03:55:44;;;;;;;17.87;12.17;;;;;;;;;;6180635;23;20376;-50
2022/03/03 03:58:10;;;;;;;18.13;10.63;;;;;;;;;;6179385;23;20388;-49
2022/03/03 04:00:36;;;;;;;15.77;11.80;;;;;;;;;;6180740;23;20396;-50
2022/03/03 04:03:02;;;;;;;21.83;10.80;;;;;;;;;;6180623;23;20386;-49
2022/03/03 04:05:27;;;;;;;22.63;13.10;;;;;;;;;;6179235;23;20470;-50
2022/03/03 04:07:53;;;;;;;15.00;11.10;;;;;;;;;;6180650;23;20457;-48
2022/03/03 04:10:20;;;;;;;17.70;11.30;;;;;;;;;;6180340;23;20439;-51
2022/03/03 04:12:46;;;;;;;18.07;11.17;;;;;;;;;;6152435;23;20593;-51
2022/03/03 04:15:12;;;;;;;21.30;12.27;;;;;;;;;;6180805;23;20371;-51
2022/03/03 04:17:38;;;;;;;17.67;10.30;;;;;;;;;;6178543;23;20517;-50
2022/03/03 04:20:05;;;;;;;18.30;11.83;;;;;;;;;;6181293;23;20368;-51
2022/03/03 04:22:31;;;;;;;16.70;11.10;;;;;;;;;;6181290;23;20462;-50
2022/03/03 04:24:57;;;;;;;16.37;10.47;;;;;;;;;;6180186;23;20459;-50
2022/03/03 04:27:23;;;;;;;18.03;11.17;;;;;;;;;;6178861;23;20381;-51
2022/03/03 04:29:48;;;;;;;16.67;11.27;;;;;;;;;;6180396;23;20431;-49
2022/03/03 04:32:14;;;;;;;18.67;12.30;;;;;;;;;;6180184;23;20384;-48
2022/03/03 04:34:40;;;;;;;16.47;11.57;;;;;;;;;;6179187;23;20403;-51
2022/03/03 04:37:06;;;;;;;18.00;12.40;;;;;;;;;;6181718;23;20384;-49
2022/03/03 04:39:32;;;;;;;14.57;11.23;;;;;;;;;;6179723;23;20376;-49
2022/03/03 04:41:58;;;;;;;13.53;8.73;;;;;;;;;;6181013;23;20711;-50
2022/03/03 04:44:24;;;;;;;17.00;11.20;;;;;;;;;;6179491;23;20408;-50
2022/03/03 04:46:50;;;;;;;13.73;10.37;;;;;;;;;;6181154;23;20383;-49
2022/03/03 04:49:16;;;;;;;18.30;10.47;;;;;;;;;;6180229;23;20439;-50
2022/03/03 04:51:42;;;;;;;18.17;10.53;;;;;;;;;;6181531;23;20369;-49
2022/03/03 04:54:08;;;;;;;20.47;12.10;;;;;;;;;;6181646;23;20939;-49
2022/03/03 04:56:34;;;;;;;18.50;11.30;;;;;;;;;;6182482;23;20368;-49
2022/03/03 04:59:00;;;;;;;18.30;12.80;;;;;;;;;;6181399;23;20388;-50
2022/03/03 05:01:26;;;;;;;16.97;10.77;;;;;;;;;;6180764;23;20717;-50
2022/03/03 05:03:52;;;;;;;16.37;11.13;;;;;;;;;;6180252;23;20384;-49
2022/03/03 05:06:18;;;;;;;18.70;12.70;;;;;;;;;;6182814;23;20682;-49
2022/03/03 05:08:44;;;;;;;18.00;11.00;;;;;;;;;;6183009;23;20478;-50
2022/03/03 05:11:10;;;;;;;17.63;12.80;;;;;;;;;;6182256;23;20395;-49
2022/03/03 05:13:37;;;;;;;20.80;10.57;;;;;;;;;;6179475;23;20380;-48
2022/03/03 05:16:03;;;;;;;21.97;12.53;;;;;;;;;;6182115;23;20381;-48
2022/03/03 05:18:29;;;;;;;15.40;11.20;;;;;;;;;;6180773;23;20396;-48
2022/03/03 05:20:55;;;;;;;17.97;11.33;;;;;;;;;;6182811;23;20368;-49
2022/03/03 05:23:21;;;;;;;15.80;10.77;;;;;;;;;;6183043;23;20472;-50
2022/03/03 05:25:47;;;;;;;15.73;9.83;;;;;;;;;;6180966;23;20376;-48
2022/03/03 05:28:13;;;;;;;15.73;10.30;;;;;;;;;;6182442;23;20368;-47
2022/03/03 05:30:39;;;;;;;13.30;10.10;;;;;;;;;;6181849;23;20376;-48
2022/03/03 05:33:05;;;;;;;16.60;9.83;;;;;;;;;;6180859;23;20847;-52
2022/03/03 05:35:31;;;;;;;17.77;11.73;;;;;;;;;;6182494;23;20610;-49
2022/03/03 05:37:57;;;;;;;14.77;10.60;;;;;;;;;;6182040;23;20375;-48
2022/03/03 05:40:23;;;;;;;19.13;11.83;;;;;;;;;;6181921;23;20407;-49
2022/03/03 05:42:49;;;;;;;17.27;10.10;;;;;;;;;;6180950;23;20410;-48
2022/03/03 05:45:15;;;;;;;15.63;10.80;;;;;;;;;;6181168;23;20379;-48
2022/03/03 05:47:41;;;;;;;23.97;11.40;;;;;;;;;;6180391;23;20372;-49
2022/03/03 05:50:07;;;;;;;21.63;11.70;;;;;;;;;;6181871;23;20580;-48
2022/03/03 05:52:33;;;;;;;16.83;10.13;;;;;;;;;;6182049;23;20467;-48
2022/03/03 05:54:59;;;;;;;16.90;11.90;;;;;;;;;;6181517;23;20788;-49
2022/03/03 05:57:27;;;;;;;19.67;10.70;;;;;;;;;;6178737;23;20555;-49
2022/03/03 05:59:53;;;;;;;18.17;10.87;;;;;;;;;;6181627;23;20367;-48
2022/03/03 06:02:19;;;;;;;21.83;11.93;;;;;;;;;;6180237;23;20404;-51
2022/03/03 06:04:45;;;;;;;23.83;12.43;;;;;;;;;;6179849;23;20368;-54
2022/03/03 06:07:11;;;;;;;19.53;11.70;;;;;;;;;;6153172;23;20424;-50
2022/03/03 06:09:37;;;;;;;16.13;11.60;;;;;;;;;;6180131;23;20969;-49
2022/03/03 06:12:03;;;;;;;14.20;10.00;;;;;;;;;;6182331;23;20375;-50
2022/03/03 06:14:42;;;;;;;18.90;10.60;;;;;;;;;;6183053;23;20395;-48
2022/03/03 06:17:08;;;;;;;15.77;10.90;;;;;;;;;;6154506;23;20990;-50
2022/03/03 06:19:39;;;;;;;19.23;11.90;;;;;;;;;;6182747;23;20372;-50
2022/03/03 06:22:05;;;;;;;18.30;11.67;;;;;;;;;;6183767;23;20411;-50
2022/03/03 06:24:31;;;;;;;18.10;11.37;;;;;;;;;;6156518;23;20376;-50
2022/03/03 06:26:57;;;;;;;15.10;11.37;;;;;;;;;;6157952;23;20380;-49
2022/03/03 06:29:23;;;;;;;17.73;11.90;;;;;;;;;;6158243;23;20846;-50
2022/03/03 06:31:49;;;;;;;13.90;10.67;;;;;;;;;;6184734;23;20396;-49
2022/03/03 06:34:14;;;;;;;23.07;12.80;;;;;;;;;;6185840;23;20145;-49
2022/03/03 06:36:40;;;;;;;17.40;12.67;;;;;;;;;;6158988;23;20391;-49
2022/03/03 06:39:06;;;;;;;15.00;11.03;;;;;;;;;;6186417;23;20148;-50
2022/03/03 06:41:32;;;;;;;20.37;13.07;;;;;;;;;;6184730;23;20394;-50
2022/03/03 06:43:58;;;;;;;19.20;13.20;;;;;;;;;;6158774;23;20372;-49
2022/03/03 06:46:24;;;;;;;21.27;11.13;;;;;;;;;;6182746;23;20388;-49
2022/03/03 06:48:50;;;;;;;22.40;12.33;;;;;;;;;;6156913;23;20759;-49
2022/03/03 06:51:17;;;;;;;19.20;12.47;;;;;;;;;;6184234;23;20379;-50
2022/03/03 06:53:44;;;;;;;20.27;12.90;;;;;;;;;;6184026;23;20371;-49
2022/03/03 06:56:10;;;;;;;17.50;12.73;;;;;;;;;;6181949;23;20755;-49
2022/03/03 06:58:37;;;;;;;24.23;13.20;;;;;;;;;;6178870;23;20368;-49
2022/03/03 07:01:03;;;;;;;26.27;12.13;;;;;;;;;;6180758;23;20376;-50
2022/03/03 07:03:30;;;;;;;22.60;13.77;;;;;;;;;;6179523;23;20471;-49
2022/03/03 07:05:56;;;;;;;23.43;13.00;;;;;;;;;;6182016;23;20949;-50
2022/03/03 07:08:22;;;;;;;22.07;14.77;;;;;;;;;;6180708;23;20463;-50
2022/03/03 07:10:48;;;;;;;17.43;13.63;;;;;;;;;;6179910;23;20183;-49
2022/03/03 07:13:15;;;;;;;23.73;14.53;;;;;;;;;;6180158;23;20367;-50
2022/03/03 07:15:44;;;;;;;23.10;14.00;;;;;;;;;;6180692;23;20411;-49
2022/03/03 07:18:12;;;;;;;28.50;12.10;;;;;;;;;;6153486;23;20377;-50
2022/03/03 07:20:56;;;;;;;16.97;11.43;;;;;;;;;;6182275;23;20376;-51
2022/03/03 07:23:22;;;;;;;19.63;10.10;;;;;;;;;;6181608;23;20369;-49
2022/03/03 07:25:51;;;;;;;21.67;14.43;;;;;;;;;;6180408;23;20438;-50
2022/03/03 07:28:17;;;;;;;19.77;12.40;;;;;;;;;;6155024;23;20165;-50
2022/03/03 07:30:43;;;;;;;18.23;13.17;;;;;;;;;;6156829;23;20407;-54
2022/03/03 07:33:09;;;;;;;22.80;12.13;;;;;;;;;;6180197;23;20412;-49
2022/03/03 07:35:35;;;;;;;17.90;13.10;;;;;;;;;;6180164;23;20376;-50
2022/03/03 07:38:04;;;;;;;22.27;12.93;;;;;;;;;;6180018;23;20150;-49
2022/03/03 07:40:31;;;;;;;21.00;13.83;;;;;;;;;;6154713;23;20902;-50
2022/03/03 07:43:00;;;;;;;21.40;13.30;;;;;;;;;;6178567;23;20864;-50
2022/03/03 07:45:26;;;;;;;23.33;13.37;;;;;;;;;;6181327;23;20383;-49
2022/03/03 07:47:54;;;;;;;22.27;13.43;;;;;;;;;;6178471;23;20884;-49
2022/03/03 07:50:20;;;;;;;22.60;12.70;;;;;;;;;;6180499;23;20436;-55
2022/03/03 07:52:46;;;;;;;18.60;12.27;;;;;;;;;;6180397;23;20419;-56
2022/03/03 07:55:12;;;;;;;21.43;13.50;;;;;;;;;;6180297;23;20376;-50
2022/03/03 07:57:44;;;;;;;26.77;14.40;;;;;;;;;;6178464;23;20435;-49
2022/03/03 08:00:13;;;;;;;24.27;15.20;;;;;;;;;;6180572;23;20158;-49
2022/03/03 08:02:39;;;;;;;26.63;16.90;;;;;;;;;;6180162;23;20372;-49
2022/03/03 08:05:06;;;;;;;24.60;14.87;;;;;;;;;;6179604;23;20705;-51
2022/03/03 08:07:35;;;;;;;40.57;15.00;;;;;;;;;;6180718;23;20757;-50
2022/03/03 08:10:02;;;;;;;31.80;15.50;;;;;;;;;;6154838;23;20432;-49
2022/03/03 08:12:28;;;;;;;29.57;15.07;;;;;;;;;;6179888;23;20369;-50
2022/03/03 08:14:54;;;;;;;16.57;12.20;;;;;;;;;;6180220;23;20411;-50
2022/03/03 08:17:20;;;;;;;20.77;13.83;;;;;;;;;;6180695;23;20415;-48
2022/03/03 08:19:46;;;;;;;30.53;14.00;;;;;;;;;;6155103;23;20818;-49
2022/03/03 08:22:13;;;;;;;20.03;13.50;;;;;;;;;;6181519;23;20404;-49
2022/03/03 08:24:43;;;;;;;32.80;15.83;;;;;;;;;;6180358;23;20686;-47
2022/03/03 08:27:09;;;;;;;21.93;15.37;;;;;;;;;;6180537;23;20458;-48
2022/03/03 08:29:35;;;;;;;22.87;13.67;;;;;;;;;;6180981;23;20749;-50
2022/03/03 08:32:01;;;;;;;21.27;13.17;;;;;;;;;;6180105;23;20372;-49
2022/03/03 08:34:34;;;;;;;26.07;15.20;;;;;;;;;;6153888;23;20153;-49
2022/03/03 08:37:00;;;;;;;18.10;13.60;;;;;;;;;;6179092;23;20384;-50
2022/03/03 08:39:28;;;;;;;26.60;14.47;;;;;;;;;;6154036;23;20368;-48
2022/03/03 08:41:59;;;;;;;21.63;13.57;;;;;;;;;;6154560;23;20376;-49
2022/03/03 08:44:32;;;;;;;24.43;14.23;;;;;;;;;;6179893;23;20761;-49
2022/03/03 08:46:58;;;;;;;23.53;14.63;;;;;;;;;;6178266;23;20406;-49
2022/03/03 08:49:26;;;;;;;27.20;16.50;;;;;;;;;;6180607;23;20441;-47
2022/03/03 08:51:52;;;;;;;24.43;15.17;;;;;;;;;;6154025;23;20414;-49
2022/03/03 08:54:18;;;;;;;20.20;14.70;;;;;;;;;;6180605;23;20368;-49
2022/03/03 08:56:43;;;;;;;26.90;14.60;;;;;;;;;;6179398;23;20954;-49
2022/03/03 08:59:09;;;;;;;27.40;15.97;;;;;;;;;;6179905;23;20395;-49
2022/03/03 09:01:35;;;;;;;23.10;14.23;;;;;;;;;;6179864;23;20458;-49
2022/03/03 09:04:01;;;;;;;25.80;16.33;;;;;;;;;;6178837;23;20605;-49
2022/03/03 09:06:28;;;;;;;27.20;15.30;;;;;;;;;;6181135;23;20152;-50
2022/03/03 09:08:54;;;;;;;18.60;14.20;;;;;;;;;;6180447;23;20184;-49
2022/03/03 09:11:20;;;;;;;26.17;15.83;;;;;;;;;;6179931;23;20455;-49
2022/03/03 09:13:46;;;;;;;24.47;15.40;;;;;;;;;;6178179;23;20463;-49
2022/03/03 09:16:13;;;;;;;22.73;15.10;;;;;;;;;;6179785;23;20407;-49
2022/03/03 09:18:39;;;;;;;22.77;13.73;;;;;;;;;;6179632;23;20376;-49
2022/03/03 09:21:05;;;;;;;24.10;15.80;;;;;;;;;;6179904;23;20373;-49
2022/03/03 09:23:30;;;;;;;25.33;15.30;;;;;;;;;;6181358;23;20375;-49
2022/03/03 09:25:56;;;;;;;21.17;14.27;;;;;;;;;;6180040;23;20236;-49
2022/03/03 09:28:22;;;;;;;19.87;13.93;;;;;;;;;;6178558;23;20375;-48
2022/03/03 09:30:49;;;;;;;27.47;14.97;;;;;;;;;;6178820;23;20471;-51
2022/03/03 09:33:15;;;;;;;23.63;13.53;;;;;;;;;;6179783;23;20500;-48
2022/03/03 09:35:41;;;;;;;24.30;14.57;;;;;;;;;;6179797;23;20716;-49
2022/03/03 09:38:07;;;;;;;25.00;14.70;;;;;;;;;;6180564;23;20375;-49
2022/03/03 09:40:33;;;;;;;25.10;13.73;;;;;;;;;;6180807;23;20744;-49
2022/03/03 09:43:01;;;;;;;22.93;15.03;;;;;;;;;;6181511;23;20406;-47
2022/03/03 09:45:27;;;;;;;22.90;14.60;;;;;;;;;;6155456;23;20871;-48
2022/03/03 09:47:54;;;;;;;18.83;13.87;;;;;;;;;;6179187;23;20387;-49
2022/03/03 09:50:20;;;;;;;23.20;13.83;;;;;;;;;;6155142;23;20475;-50
2022/03/03 09:52:46;;;;;;;19.03;13.87;;;;;;;;;;6181457;23;20368;-48
2022/03/03 09:55:12;;;;;;;19.80;14.37;;;;;;;;;;6154599;23;20377;-50
2022/03/03 09:57:38;;;;;;;22.20;13.90;;;;;;;;;;6181190;23;21132;-47
2022/03/03 10:00:08;;;;;;;22.90;14.60;;;;;;;;;;6182932;23;20686;-49
2022/03/03 10:02:53;;;;;;;21.20;14.23;;;;;;;;;;6180054;23;20447;-48
2022/03/03 10:05:38;;;;;;;22.70;14.90;;;;;;;;;;6179919;23;20368;-50
2022/03/03 10:08:06;;;;;;;25.30;14.90;;;;;;;;;;6181724;23;20434;-49
2022/03/03 10:10:32;;;;;;;24.10;13.77;;;;;;;;;;6181526;23;20830;-50
2022/03/03 10:12:58;;;;;;;23.67;14.97;;;;;;;;;;6180377;23;20373;-49
2022/03/03 10:15:25;;;;;;;20.40;13.70;;;;;;;;;;6181552;23;20387;-49
2022/03/03 10:17:55;;;;;;;24.73;15.63;;;;;;;;;;6181891;23;20376;-48
2022/03/03 10:20:21;;;;;;;22.70;16.83;;;;;;;;;;6183135;23;20414;-49
2022/03/03 10:22:51;;;;;;;18.80;13.23;;;;;;;;;;6182111;23;20364;-48
2022/03/03 10:25:27;;;;;;;20.27;15.10;;;;;;;;;;6179849;23;20172;-49
2022/03/03 10:27:53;;;;;;;29.30;14.20;;;;;;;;;;6180491;23;20368;-48
2022/03/03 10:30:18;;;;;;;22.03;14.80;;;;;;;;;;6181890;23;20437;-49
2022/03/03 10:32:44;;;;;;;23.57;14.90;;;;;;;;;;6181099;23;20232;-49
2022/03/03 10:35:14;;;;;;;14.87;12.00;;;;;;;;;;6180546;23;20149;-48
2022/03/03 10:37:40;;;;;;;17.80;13.90;;;;;;;;;;6181830;23;20840;-49
2022/03/03 10:40:06;;;;;;;24.43;15.10;;;;;;;;;;6180041;23;20408;-49
2022/03/03 10:42:32;;;;;;;20.40;15.20;;;;;;;;;;6153728;23;20415;-49
2022/03/03 10:45:07;;;;;;;26.67;13.10;;;;;;;;;;6181648;23;20376;-49
2022/03/03 10:47:33;;;;;;;17.20;13.60;;;;;;;;;;6181646;23;20152;-48
2022/03/03 10:50:00;;;;;;;18.50;12.43;;;;;;;;;;6179590;23;20428;-49
2022/03/03 10:52:27;;;;;;;19.73;12.90;;;;;;;;;;6179244;23;20506;-48
2022/03/03 10:54:53;;;;;;;20.50;13.37;;;;;;;;;;6180032;23;20387;-49
2022/03/03 10:57:32;;;;;;;16.93;13.27;;;;;;;;;;6179310;23;20357;-48
2022/03/03 10:59:59;;;;;;;19.07;12.87;;;;;;;;;;6181454;23;20404;-47
2022/03/03 11:02:27;;;;;;;21.23;14.10;;;;;;;;;;6179948;23;20352;-49
2022/03/03 11:04:53;;;;;;;19.50;14.37;;;;;;;;;;6181746;23;20368;-49
2022/03/03 11:07:20;;;;;;;20.07;14.03;;;;;;;;;;6182097;23;20848;-48
2022/03/03 11:09:45;;;;;;;20.13;14.20;;;;;;;;;;6154312;23;20188;-48
2022/03/03 11:12:11;;;;;;;23.10;13.90;;;;;;;;;;6153998;23;20450;-48
2022/03/03 11:14:39;;;;;;;19.13;13.97;;;;;;;;;;6181045;23;20411;-49
2022/03/03 11:17:05;;;;;;;22.90;13.87;;;;;;;;;;6181473;23;20156;-49
2022/03/03 11:19:30;;;;;;;20.80;14.77;;;;;;;;;;6154911;23;20955;-49
2022/03/03 11:21:56;;;;;;;19.00;13.20;;;;;;;;;;6153939;23;20852;-50
2022/03/03 11:24:22;;;;;;;18.20;13.20;;;;;;;;;;6181747;23;20380;-49
2022/03/03 11:26:48;;;;;;;22.20;13.90;;;;;;;;;;6152494;23;20432;-51
2022/03/03 11:29:20;;;;;;;19.90;13.77;;;;;;;;;;6153689;23;20432;-49
2022/03/03 11:31:59;;;;;;;20.43;14.30;;;;;;;;;;6179822;23;20376;-48
2022/03/03 11:34:27;;;;;;;18.60;12.20;;;;;;;;;;6180714;23;20372;-50
2022/03/03 11:37:19;;;;;;;19.57;13.40;;;;;;;;;;6179397;23;20408;-49
2022/03/03 11:39:55;;;;;;;22.40;12.97;;;;;;;;;;6175328;23;20419;-50
2022/03/03 11:42:31;;;;;;;24.80;13.60;;;;;;;;;;6177575;23;20829;-48
2022/03/03 11:45:09;;;;;;;18.63;14.60;;;;;;;;;;6180368;23;20387;-50
2022/03/03 11:47:36;;;;;;;20.37;13.70;;;;;;;;;;6180295;23;20373;-48
2022/03/03 11:50:12;;;;;;;20.80;13.80;;;;;;;;;;6180302;23;20431;-50
2022/03/03 11:52:38;;;;;;;19.83;14.30;;;;;;;;;;6181841;23;20372;-50
2022/03/03 11:55:23;;;;;;;18.50;14.50;;;;;;;;;;6180963;23;20368;-49
2022/03/03 11:57:49;;;;;;;20.77;13.90;;;;;;;;;;6179580;23;20754;-49
2022/03/03 12:00:18;;;;;;;17.07;14.13;;;;;;;;;;6180446;23;20368;-49
2022/03/03 12:02:53;;;;;;;18.67;15.57;;;;;;;;;;6181281;23;20153;-49
2022/03/03 12:05:27;;;;;;;20.87;14.40;;;;;;;;;;6180487;23;20372;-49
2022/03/03 12:08:01;;;;;;;18.53;15.00;;;;;;;;;;6179419;23;20379;-48
2022/03/03 12:10:27;;;;;;;20.10;16.33;;;;;;;;;;6179728;23;20760;-50
2022/03/03 12:12:53;;;;;;;21.83;14.97;;;;;;;;;;6178250;23;20430;-50
2022/03/03 12:15:19;;;;;;;18.97;14.37;;;;;;;;;;6180417;23;20467;-49
2022/03/03 12:17:46;;;;;;;19.40;14.27;;;;;;;;;;6179333;23;20384;-48
2022/03/03 12:20:24;;;;;;;17.63;14.57;;;;;;;;;;6180965;23;20769;-49
2022/03/03 12:23:10;;;;;;;23.57;15.57;;;;;;;;;;6179922;23;20843;-50
2022/03/03 12:25:48;;;;;;;22.60;15.17;;;;;;;;;;6154039;23;20495;-50
2022/03/03 12:28:18;;;;;;;21.00;15.57;;;;;;;;;;6178606;23;20407;-49
2022/03/03 12:30:44;;;;;;;18.30;14.90;;;;;;;;;;6181488;23;20931;-50
2022/03/03 12:33:17;;;;;;;22.53;16.83;;;;;;;;;;6180154;23;20926;-49
2022/03/03 12:35:43;;;;;;;19.90;16.10;;;;;;;;;;6154108;23;20376;-50
2022/03/03 12:38:09;;;;;;;21.90;17.57;;;;;;;;;;6154428;23;20398;-49
2022/03/03 12:40:36;;;;;;;20.37;17.27;;;;;;;;;;6153097;23;20373;-49
2022/03/03 12:43:02;;;;;;;22.20;18.00;;;;;;;;;;6179579;23;20179;-50
2022/03/03 12:45:30;;;;;;;22.23;18.60;;;;;;;;;;6179769;23;20365;-50
2022/03/03 12:47:55;;;;;;;24.93;17.40;;;;;;;;;;6179405;23;20657;-49
2022/03/03 12:50:22;;;;;;;18.30;15.23;;;;;;;;;;6179810;23;20510;-49
2022/03/03 12:52:56;;;;;;;21.17;16.27;;;;;;;;;;6153355;23;20380;-50
2022/03/03 12:55:26;;;;;;;22.10;18.43;;;;;;;;;;6179285;23;20381;-49
2022/03/03 12:57:52;;;;;;;20.53;15.97;;;;;;;;;;6178960;23;20499;-48
2022/03/03 13:00:19;;;;;;;26.93;16.83;;;;;;;;;;6180247;23;20501;-49
2022/03/03 13:02:50;;;;;;;24.17;17.90;;;;;;;;;;6179227;23;20887;-51
2022/03/03 13:05:31;;;;;;;22.50;15.77;;;;;;;;;;6179554;23;20376;-50
2022/03/03 13:07:57;;;;;;;18.37;15.90;;;;;;;;;;6179763;23;20411;-50
2022/03/03 13:10:23;;;;;;;25.73;18.87;;;;;;;;;;6177556;23;20431;-49
2022/03/03 13:12:52;;;;;;;23.93;18.53;;;;;;;;;;6178857;23;20373;-49
2022/03/03 13:15:26;;;;;;;27.10;17.40;;;;;;;;;;6179561;23;20145;-49
2022/03/03 13:18:02;;;;;;;19.47;16.93;;;;;;;;;;6179682;23;20372;-49
2022/03/03 13:20:41;;;;;;;21.90;18.27;;;;;;;;;;6183301;23;20380;-48
2022/03/03 13:23:11;;;;;;;23.90;17.60;;;;;;;;;;6183957;23;20368;-49
2022/03/03 13:25:38;;;;;;;20.70;16.90;;;;;;;;;;6182242;23;20411;-49
2022/03/03 13:28:04;;;;;;;20.50;17.40;;;;;;;;;;6182472;23;20735;-47
2022/03/03 13:30:30;;;;;;;24.80;17.40;;;;;;;;;;6185147;23;20424;-50
2022/03/03 13:32:57;;;;;;;22.43;17.50;;;;;;;;;;6183511;23;20765;-49
2022/03/03 13:35:23;;;;;;;22.87;16.60;;;;;;;;;;6185187;23;20684;-50
2022/03/03 13:37:51;;;;;;;22.67;18.20;;;;;;;;;;6184042;23;20384;-49
2022/03/03 13:40:22;;;;;;;24.10;17.97;;;;;;;;;;6185742;23;20379;-49
2022/03/03 13:42:48;;;;;;;28.00;16.63;;;;;;;;;;6186415;23;20410;-50
2022/03/03 13:45:16;;;;;;;25.77;18.40;;;;;;;;;;6159763;23;20372;-49
2022/03/03 13:47:42;;;;;;;23.17;18.30;;;;;;;;;;6159559;23;20387;-49
2022/03/03 13:50:17;;;;;;;27.27;18.90;;;;;;;;;;6185747;23;20440;-49
2022/03/03 13:52:43;;;;;;;24.40;17.23;;;;;;;;;;6184936;23;20380;-50
2022/03/03 13:55:13;;;;;;;21.10;17.57;;;;;;;;;;6183918;23;20426;-50
2022/03/03 13:57:47;;;;;;;21.90;17.17;;;;;;;;;;6183780;23;20424;-49
2022/03/03 14:00:29;;;;;;;22.13;17.17;;;;;;;;;;6157060;23;20470;-50
2022/03/03 14:02:56;;;;;;;27.00;17.73;;;;;;;;;;6183216;23;20395;-49
2022/03/03 14:05:32;;;;;;;28.27;17.80;;;;;;;;;;6181477;23;20380;-48
2022/03/03 14:07:59;;;;;;;23.30;16.10;;;;;;;;;;6182203;23;20391;-49
2022/03/03 14:10:25;;;;;;;26.30;15.60;;;;;;;;;;6179738;23;20432;-49
2022/03/03 14:13:21;;;;;;;24.53;17.07;;;;;;;;;;6181633;23;20701;-49
2022/03/03 14:15:47;;;;;;;22.97;15.10;;;;;;;;;;6150880;23;20458;-49
2022/03/03 14:18:14;;;;;;;25.83;16.53;;;;;;;;;;6180629;23;20874;-49
2022/03/03 14:20:40;;;;;;;25.20;16.57;;;;;;;;;;6179574;23;20883;-50
2022/03/03 14:23:06;;;;;;;23.57;15.70;;;;;;;;;;6180645;23;20387;-49